createdAt,value
2023-02-17T00:00:55.263Z,4.22
2023-02-17T00:03:22.656Z,4.78
2023-02-17T00:05:51.090Z,3.97
2023-02-17T00:08:18.331Z,3.50
2023-02-17T00:10:45.869Z,3.17
2023-02-17T00:13:12.993Z,4.65
2023-02-17T00:15:40.266Z,2.20
2023-02-17T00:18:07.305Z,4.07
2023-02-17T00:20:34.393Z,5.50
2023-02-17T00:23:01.623Z,3.45
2023-02-17T00:25:28.650Z,2.88
2023-02-17T00:27:55.763Z,3.83
2023-02-17T00:30:22.941Z,4.30
2023-02-17T00:32:50.090Z,3.33
2023-02-17T00:35:17.157Z,3.20
2023-02-17T00:37:45.739Z,4.10
2023-02-17T00:40:16.083Z,2.25
2023-02-17T00:42:43.288Z,5.13
2023-02-17T00:45:10.600Z,4.30
2023-02-17T00:47:37.677Z,3.72
2023-02-17T00:50:05.373Z,4.13
2023-02-17T00:52:32.761Z,4.80
2023-02-17T00:54:59.782Z,5.45
2023-02-17T00:57:26.917Z,4.25
2023-02-17T00:59:54.249Z,4.57
2023-02-17T01:02:21.260Z,5.78
2023-02-17T01:04:48.352Z,5.50
2023-02-17T01:07:15.487Z,4.25
2023-02-17T01:09:42.528Z,6.65
2023-02-17T01:12:12.586Z,3.45
2023-02-17T01:14:40.107Z,5.85
2023-02-17T01:17:07.215Z,4.22
2023-02-17T01:19:34.346Z,4.65
2023-02-17T01:22:01.480Z,5.25
2023-02-17T01:24:28.660Z,4.90
2023-02-17T01:26:56.065Z,5.40
2023-02-17T01:29:23.192Z,6.10
2023-02-17T01:31:50.219Z,5.18
2023-02-17T01:34:17.281Z,6.13
2023-02-17T01:36:44.393Z,5.30
2023-02-17T01:39:16.796Z,5.40
2023-02-17T01:41:44.587Z,5.00
2023-02-17T01:44:21.879Z,5.72
2023-02-17T01:46:54.641Z,5.03
2023-02-17T01:49:36.225Z,6.82
2023-02-17T01:52:24.985Z,4.75
2023-02-17T01:55:08.368Z,5.28
2023-02-17T01:57:39.544Z,5.13
2023-02-17T02:02:35.223Z,5.47
2023-02-17T02:05:03.637Z,5.55
2023-02-17T02:07:34.470Z,4.55
2023-02-17T02:10:01.518Z,5.85
2023-02-17T02:12:31.454Z,4.53
2023-02-17T02:15:03.302Z,5.93
2023-02-17T02:18:07.546Z,7.97
2023-02-17T02:20:56.160Z,5.18
2023-02-17T02:23:42.092Z,5.25
2023-02-17T02:26:46.186Z,6.18
2023-02-17T02:29:34.683Z,6.72
2023-02-17T02:32:38.625Z,4.18
2023-02-17T02:35:22.753Z,5.75
2023-02-17T02:38:18.258Z,4.80
2023-02-17T02:40:54.362Z,4.57
2023-02-17T02:43:23.820Z,5.60
2023-02-17T02:45:50.990Z,5.30
2023-02-17T02:48:18.191Z,3.38
2023-02-17T02:50:48.222Z,6.05
2023-02-17T02:53:35.458Z,5.22
2023-02-17T02:56:25.770Z,5.18
2023-02-17T02:59:17.351Z,3.90
2023-02-17T03:01:44.328Z,5.90
2023-02-17T03:04:19.916Z,5.65
2023-02-17T03:06:49.374Z,4.43
2023-02-17T03:09:26.411Z,7.10
2023-02-17T03:11:56.432Z,6.57
2023-02-17T03:14:24.048Z,4.45
2023-02-17T03:16:52.465Z,7.18
2023-02-17T03:19:23.645Z,7.78
2023-02-17T03:21:58.764Z,7.18
2023-02-17T03:24:26.080Z,6.05
2023-02-17T03:26:53.319Z,6.72
2023-02-17T03:29:20.513Z,7.60
2023-02-17T03:31:47.709Z,6.32
2023-02-17T03:34:14.901Z,6.60
2023-02-17T03:36:41.994Z,6.65
2023-02-17T03:39:09.062Z,5.03
2023-02-17T03:41:36.560Z,7.07
2023-02-17T03:44:03.690Z,8.18
2023-02-17T03:46:30.767Z,6.97
2023-02-17T03:48:57.795Z,5.32
2023-02-17T03:51:25.854Z,5.95
2023-02-17T03:53:53.337Z,5.57
2023-02-17T03:56:20.796Z,4.78
2023-02-17T03:58:47.990Z,6.93
2023-02-17T04:01:15.366Z,5.25
2023-02-17T04:03:42.870Z,6.10
2023-02-17T04:06:10.941Z,3.85
2023-02-17T04:08:39.011Z,4.15
2023-02-17T04:11:08.663Z,4.72
2023-02-17T04:13:36.413Z,4.45
2023-02-17T04:16:05.294Z,4.80
2023-02-17T04:18:32.793Z,3.63
2023-02-17T04:21:00.041Z,4.05
2023-02-17T04:23:27.771Z,5.45
2023-02-17T04:25:55.119Z,4.20
2023-02-17T04:28:23.418Z,2.88
2023-02-17T04:30:51.874Z,2.33
2023-02-17T04:33:19.589Z,2.42
2023-02-17T04:35:48.312Z,4.78
2023-02-17T04:38:15.414Z,4.38
2023-02-17T04:40:43.321Z,5.00
2023-02-17T04:43:10.440Z,6.00
2023-02-17T04:45:38.489Z,3.97
2023-02-17T04:48:05.723Z,4.88
2023-02-17T04:50:32.828Z,3.85
2023-02-17T04:52:59.918Z,3.40
2023-02-17T04:55:26.982Z,4.90
2023-02-17T04:57:54.729Z,4.55
2023-02-17T05:00:22.130Z,6.03
2023-02-17T05:02:49.140Z,3.90
2023-02-17T05:05:18.793Z,6.95
2023-02-17T05:07:46.420Z,4.60
2023-02-17T05:10:15.514Z,5.25
2023-02-17T05:12:42.567Z,4.40
2023-02-17T05:15:10.993Z,5.18
2023-02-17T05:17:38.315Z,4.20
2023-02-17T05:20:06.614Z,5.32
2023-02-17T05:22:33.695Z,5.45
2023-02-17T05:25:00.881Z,4.90
2023-02-17T05:27:28.082Z,5.70
2023-02-17T05:29:55.281Z,5.45
2023-02-17T05:32:23.408Z,4.90
2023-02-17T05:34:50.512Z,5.00
2023-02-17T05:37:17.780Z,3.60
2023-02-17T05:39:44.826Z,4.30
2023-02-17T05:42:11.922Z,4.82
2023-02-17T05:44:39.048Z,3.78
2023-02-17T05:47:06.402Z,3.70
2023-02-17T05:49:33.447Z,4.43
2023-02-17T05:52:00.584Z,3.60
2023-02-17T05:54:27.801Z,3.03
2023-02-17T05:56:55.091Z,3.78
2023-02-17T05:59:22.242Z,4.28
2023-02-17T06:01:49.355Z,3.90
2023-02-17T06:04:16.513Z,6.15
2023-02-17T06:06:43.790Z,3.63
2023-02-17T06:09:10.780Z,2.28
2023-02-17T06:11:37.862Z,1.88
2023-02-17T06:14:04.975Z,2.92
2023-02-17T06:16:32.224Z,4.43
2023-02-17T06:19:02.296Z,3.53
2023-02-17T06:21:29.488Z,2.53
2023-02-17T06:23:56.624Z,3.30
2023-02-17T06:26:24.263Z,4.63
2023-02-17T06:28:51.375Z,2.67
2023-02-17T06:31:18.719Z,3.33
2023-02-17T06:33:45.911Z,3.10
2023-02-17T06:36:13.029Z,6.47
2023-02-17T06:38:40.149Z,4.45
2023-02-17T06:41:07.220Z,3.63
2023-02-17T06:43:34.309Z,4.15
2023-02-17T06:46:01.457Z,3.88
2023-02-17T06:48:28.867Z,2.50
2023-02-17T06:50:56.034Z,3.35
2023-02-17T06:53:23.025Z,4.57
2023-02-17T06:55:50.078Z,2.35
2023-02-17T06:58:17.135Z,3.22
2023-02-17T07:00:44.136Z,5.10
2023-02-17T07:03:11.338Z,2.72
2023-02-17T07:05:40.330Z,4.40
2023-02-17T07:08:07.695Z,3.78
2023-02-17T07:10:35.258Z,4.00
2023-02-17T07:13:02.355Z,4.68
2023-02-17T07:15:29.416Z,4.03
2023-02-17T07:17:56.534Z,4.18
2023-02-17T07:20:23.582Z,5.28
2023-02-17T07:22:50.729Z,4.43
2023-02-17T07:25:18.066Z,3.92
2023-02-17T07:27:45.089Z,3.55
2023-02-17T07:30:12.580Z,3.63
2023-02-17T07:32:39.680Z,2.63
2023-02-17T07:35:07.134Z,3.75
2023-02-17T07:37:34.642Z,2.15
2023-02-17T07:40:01.826Z,3.75
2023-02-17T07:42:28.898Z,1.67
2023-02-17T07:44:56.317Z,2.38
2023-02-17T07:47:23.418Z,3.88
2023-02-17T07:49:50.468Z,2.70
2023-02-17T07:52:18.743Z,4.70
2023-02-17T07:54:46.349Z,2.28
2023-02-17T07:57:13.502Z,3.40
2023-02-17T07:59:40.651Z,1.63
2023-02-17T08:02:08.048Z,2.40
2023-02-17T08:04:35.103Z,3.50
2023-02-17T08:07:02.222Z,2.45
2023-02-17T08:09:47.876Z,4.18
2023-02-17T08:12:38.763Z,4.15
2023-02-17T08:15:07.973Z,4.10
2023-02-17T08:17:35.575Z,2.08
2023-02-17T08:20:08.720Z,2.33
2023-02-17T08:22:36.899Z,4.10
2023-02-17T08:25:06.265Z,2.72
2023-02-17T08:27:33.875Z,2.28
2023-02-17T08:30:01.175Z,1.92
2023-02-17T08:32:28.689Z,2.65
2023-02-17T08:34:56.955Z,2.38
2023-02-17T08:37:24.442Z,1.80
2023-02-17T08:39:51.569Z,4.57
2023-02-17T08:42:20.120Z,2.88
2023-02-17T08:44:48.408Z,3.28
2023-02-17T08:47:15.538Z,1.77
2023-02-17T08:49:42.858Z,3.45
2023-02-17T08:52:10.453Z,1.60
2023-02-17T08:54:38.502Z,3.47
2023-02-17T08:57:06.426Z,1.73
2023-02-17T08:59:33.999Z,2.30
2023-02-17T09:02:01.969Z,2.80
2023-02-17T09:04:29.207Z,3.80
2023-02-17T09:06:56.989Z,2.55
2023-02-17T09:09:28.482Z,1.88
2023-02-17T09:11:59.400Z,4.45
2023-02-17T09:14:26.777Z,2.20
2023-02-17T09:16:55.388Z,3.50
2023-02-17T09:19:23.559Z,2.97
2023-02-17T09:21:51.190Z,2.67
2023-02-17T09:24:18.589Z,1.42
2023-02-17T09:26:46.109Z,1.23
2023-02-17T09:29:13.453Z,2.67
2023-02-17T09:31:40.793Z,3.13
2023-02-17T09:34:07.893Z,2.65
2023-02-17T09:36:40.021Z,2.03
2023-02-17T09:39:07.152Z,1.92
2023-02-17T09:41:48.009Z,2.28
2023-02-17T09:44:35.215Z,2.75
2023-02-17T09:47:16.393Z,2.38
2023-02-17T09:52:24.123Z,2.78
2023-02-17T09:55:04.357Z,2.60
2023-02-17T09:57:43.568Z,2.67
2023-02-17T10:00:21.788Z,3.17
2023-02-17T10:03:18.244Z,2.33
2023-02-17T10:06:22.125Z,2.60
2023-02-17T10:09:03.126Z,2.53
2023-02-17T10:11:35.425Z,1.75
2023-02-17T10:14:16.308Z,1.15
2023-02-17T10:16:54.334Z,2.20
2023-02-17T10:19:36.482Z,0.68
2023-02-17T10:22:20.043Z,2.28
2023-02-17T10:24:47.208Z,1.52
2023-02-17T10:27:30.274Z,3.53
2023-02-17T10:30:04.635Z,2.13
2023-02-17T10:32:40.120Z,1.75
2023-02-17T10:35:23.038Z,0.88
2023-02-17T10:38:13.076Z,2.60
2023-02-17T10:40:40.909Z,2.40
2023-02-17T10:43:11.232Z,2.25
2023-02-17T10:45:41.183Z,2.90
2023-02-17T10:48:12.513Z,2.78
2023-02-17T10:50:42.844Z,1.77
2023-02-17T10:53:22.849Z,0.40
2023-02-17T10:56:18.728Z,1.55
2023-02-17T10:59:26.906Z,1.75
2023-02-17T11:02:00.591Z,2.67
2023-02-17T11:04:27.601Z,3.03
2023-02-17T11:06:55.968Z,2.20
2023-02-17T11:09:34.827Z,2.35
2023-02-17T11:12:10.621Z,2.70
2023-02-17T11:14:44.042Z,1.33
2023-02-17T11:17:35.952Z,1.60
2023-02-17T11:20:09.935Z,2.65
2023-02-17T11:22:44.632Z,1.67
2023-02-17T11:25:30.149Z,1.27
2023-02-17T11:28:00.206Z,0.77
2023-02-17T11:30:29.236Z,1.08
2023-02-17T11:32:56.765Z,1.50
2023-02-17T11:35:50.329Z,0.80
2023-02-17T11:38:21.955Z,1.02
2023-02-17T11:40:56.961Z,0.88
2023-02-17T11:43:28.543Z,0.82
2023-02-17T11:46:14.243Z,1.98
2023-02-17T11:48:50.460Z,1.67
2023-02-17T11:51:45.448Z,2.17
2023-02-17T11:54:45.350Z,1.42
2023-02-17T11:57:19.420Z,0.90
2023-02-17T11:59:49.380Z,1.42
2023-02-17T12:02:46.963Z,0.50
2023-02-17T12:05:52.164Z,1.23
2023-02-17T12:08:27.549Z,0.63
2023-02-17T12:11:06.413Z,0.93
2023-02-17T12:13:36.490Z,0.73
2023-02-17T12:16:21.793Z,1.42
2023-02-17T12:19:10.058Z,1.38
2023-02-17T12:22:05.193Z,0.70
2023-02-17T12:24:51.687Z,0.98
2023-02-17T12:27:41.766Z,1.30
2023-02-17T12:30:44.241Z,0.50
2023-02-17T12:33:35.797Z,1.40
2023-02-17T12:36:07.485Z,0.80
2023-02-17T12:38:44.083Z,1.48
2023-02-17T12:41:17.881Z,0.30
2023-02-17T12:43:51.408Z,0.47
2023-02-17T12:46:39.767Z,0.82
2023-02-17T12:49:17.683Z,0.88
2023-02-17T12:51:49.997Z,0.95
2023-02-17T12:54:38.766Z,0.70
2023-02-17T12:57:11.600Z,1.67
2023-02-17T12:59:48.462Z,0.75
2023-02-17T13:02:22.868Z,0.28
2023-02-17T13:04:55.864Z,0.70
2023-02-17T13:07:45.105Z,0.75
2023-02-17T13:10:35.588Z,1.25
2023-02-17T13:13:17.157Z,0.70
2023-02-17T13:15:46.508Z,1.65
2023-02-17T13:18:32.307Z,0.40
2023-02-17T13:21:20.588Z,1.88
2023-02-17T13:24:09.131Z,1.75
2023-02-17T13:26:38.180Z,1.25
2023-02-17T13:29:30.741Z,1.65
2023-02-17T13:32:02.422Z,0.88
2023-02-17T13:34:37.538Z,0.68
2023-02-17T13:37:44.883Z,0.63
2023-02-17T13:40:20.763Z,0.60
2023-02-17T13:42:52.930Z,1.08
2023-02-17T13:45:29.280Z,1.25
2023-02-17T13:48:10.805Z,2.40
2023-02-17T13:50:43.963Z,1.20
2023-02-17T13:53:32.986Z,1.02
2023-02-17T13:56:12.556Z,1.67
2023-02-17T13:58:41.672Z,0.57
2023-02-17T14:01:16.091Z,1.60
2023-02-17T14:03:50.915Z,1.45
2023-02-17T14:06:38.226Z,0.88
2023-02-17T14:09:24.382Z,0.98
2023-02-17T14:11:53.231Z,1.73
2023-02-17T14:14:22.670Z,1.35
2023-02-17T14:17:01.859Z,0.63
2023-02-17T14:19:29.952Z,1.13
2023-02-17T14:22:04.384Z,1.70
2023-02-17T14:24:39.043Z,1.50
2023-02-17T14:27:09.050Z,1.20
2023-02-17T14:29:48.339Z,1.25
2023-02-17T14:32:33.515Z,1.90
2023-02-17T14:35:12.763Z,2.38
2023-02-17T14:37:41.587Z,1.88
2023-02-17T14:40:23.661Z,1.40
2023-02-17T14:42:51.444Z,0.98
2023-02-17T14:45:20.690Z,2.05
2023-02-17T14:47:48.169Z,1.42
2023-02-17T14:50:17.590Z,1.00
2023-02-17T14:52:48.210Z,0.88
2023-02-17T14:55:42.369Z,2.10
2023-02-17T14:58:17.889Z,0.82
2023-02-17T15:00:45.043Z,1.23
2023-02-17T15:03:12.091Z,1.75
2023-02-17T15:05:42.563Z,2.30
2023-02-17T15:08:19.554Z,1.73
2023-02-17T15:10:47.260Z,1.73
2023-02-17T15:13:20.772Z,1.13
2023-02-17T15:15:49.517Z,2.20
2023-02-17T15:18:20.812Z,1.05
2023-02-17T15:20:50.620Z,0.68
2023-02-17T15:23:22.720Z,1.23
2023-02-17T15:25:51.507Z,0.82
2023-02-17T15:28:20.343Z,1.73
2023-02-17T15:30:54.563Z,1.02
2023-02-17T15:33:23.590Z,1.00
2023-02-17T15:35:56.480Z,0.68
2023-02-17T15:38:24.308Z,0.43
2023-02-17T15:40:51.643Z,1.00
2023-02-17T15:43:22.235Z,0.85
2023-02-17T15:45:49.718Z,0.50
2023-02-17T15:48:27.744Z,0.57
2023-02-17T15:50:54.981Z,0.55
2023-02-17T15:53:22.368Z,0.65
2023-02-17T15:55:50.023Z,1.65
2023-02-17T15:58:20.300Z,1.45
2023-02-17T16:00:48.712Z,0.40
2023-02-17T16:03:16.519Z,0.75
2023-02-17T16:05:44.201Z,1.08
2023-02-17T16:08:13.600Z,1.63
2023-02-17T16:10:42.654Z,0.43
2023-02-17T16:13:14.831Z,0.90
2023-02-17T16:15:42.933Z,1.25
2023-02-17T16:18:24.467Z,0.98
2023-02-17T16:20:52.033Z,1.15
2023-02-17T16:23:19.747Z,0.77
2023-02-17T16:25:48.362Z,0.95
2023-02-17T16:28:18.370Z,1.15
2023-02-17T16:30:48.709Z,0.63
2023-02-17T16:33:16.924Z,0.28
2023-02-17T16:35:44.038Z,0.55
2023-02-17T16:38:24.498Z,0.63
2023-02-17T16:40:52.933Z,0.40
2023-02-17T16:43:27.008Z,0.43
2023-02-17T16:46:02.569Z,0.20
2023-02-17T16:48:33.357Z,0.77
2023-02-17T16:51:00.526Z,0.20
2023-02-17T16:53:29.840Z,0.80
2023-02-17T16:55:57.210Z,0.30
2023-02-17T16:58:26.728Z,0.35
2023-02-17T17:00:56.155Z,0.10
2023-02-17T17:03:23.667Z,0.10
2023-02-17T17:05:52.830Z,0.63
2023-02-17T17:08:21.937Z,1.17
2023-02-17T17:10:49.705Z,0.10
2023-02-17T17:13:17.056Z,0.10
2023-02-17T17:15:45.630Z,0.75
2023-02-17T17:18:21.192Z,0.50
2023-02-17T17:20:50.136Z,2.10
2023-02-17T17:23:18.935Z,0.38
2023-02-17T17:25:47.167Z,1.83
2023-02-17T17:28:16.468Z,0.00
2023-02-17T17:30:43.678Z,0.57
2023-02-17T17:33:10.874Z,0.32
2023-02-17T17:35:38.115Z,0.70
2023-02-17T17:38:05.847Z,0.25
2023-02-17T17:40:48.443Z,0.68
2023-02-17T17:43:20.723Z,0.40
2023-02-17T17:45:49.468Z,0.28
2023-02-17T17:48:17.606Z,0.00
2023-02-17T17:50:45.032Z,0.35
2023-02-17T17:53:12.342Z,0.20
2023-02-17T17:55:39.364Z,0.55
2023-02-17T17:58:06.517Z,1.10
2023-02-17T18:00:33.754Z,1.55
2023-02-17T18:03:00.802Z,1.35
2023-02-17T18:05:28.825Z,1.25
2023-02-17T18:07:56.503Z,2.70
2023-02-17T18:10:23.809Z,0.45
2023-02-17T18:12:51.135Z,1.13
2023-02-17T18:15:19.003Z,1.23
2023-02-17T18:17:48.071Z,0.47
2023-02-17T18:20:16.624Z,1.90
2023-02-17T18:22:43.942Z,1.80
2023-02-17T18:25:12.292Z,0.80
2023-02-17T18:27:44.945Z,0.22
2023-02-17T18:30:16.247Z,1.58
2023-02-17T18:32:44.371Z,0.73
2023-02-17T18:35:12.304Z,0.45
2023-02-17T18:37:41.035Z,0.45
2023-02-17T18:40:12.661Z,0.70
2023-02-17T18:42:41.237Z,1.17
2023-02-17T18:45:09.275Z,1.38
2023-02-17T18:47:36.408Z,0.95
2023-02-17T18:50:04.420Z,1.70
2023-02-17T18:52:31.494Z,0.20
2023-02-17T18:54:59.486Z,0.17
2023-02-17T18:57:26.518Z,1.23
2023-02-17T18:59:53.624Z,0.95
2023-02-17T19:02:22.215Z,0.43
2023-02-17T19:04:52.586Z,0.38
2023-02-17T19:07:20.306Z,1.45
2023-02-17T19:09:51.776Z,1.42
2023-02-17T19:12:19.013Z,0.70
2023-02-17T19:14:48.004Z,0.80
2023-02-17T19:17:18.437Z,1.02
2023-02-17T19:19:45.600Z,0.75
2023-02-17T19:22:12.800Z,1.13
2023-02-17T19:24:41.399Z,0.22
2023-02-17T19:27:09.326Z,0.43
2023-02-17T19:29:36.565Z,0.32
2023-02-17T19:32:04.578Z,0.38
2023-02-17T19:34:32.204Z,0.30
2023-02-17T19:36:59.502Z,1.88
2023-02-17T19:39:26.676Z,1.63
2023-02-17T19:41:53.847Z,0.85
2023-02-17T19:44:21.036Z,0.20
2023-02-17T19:46:48.218Z,0.57
2023-02-17T19:49:15.358Z,2.08
2023-02-17T19:51:42.708Z,0.80
2023-02-17T19:54:09.811Z,2.08
2023-02-17T19:56:39.043Z,1.65
2023-02-17T19:59:06.283Z,0.40
2023-02-17T20:01:35.103Z,0.68
2023-02-17T20:04:04.693Z,1.23
2023-02-17T20:06:44.420Z,0.75
2023-02-17T20:09:15.974Z,0.82
2023-02-17T20:11:44.621Z,0.32
2023-02-17T20:14:11.823Z,0.00
2023-02-17T20:16:39.643Z,1.30
2023-02-17T20:19:07.421Z,0.40
2023-02-17T20:21:38.548Z,0.80
2023-02-17T20:24:06.535Z,0.30
2023-02-17T20:26:39.854Z,0.60
2023-02-17T20:29:07.080Z,0.65
2023-02-17T20:31:36.089Z,0.38
2023-02-17T20:34:05.211Z,1.15
2023-02-17T20:36:32.960Z,1.17
2023-02-17T20:39:00.439Z,0.00
2023-02-17T20:41:27.595Z,0.52
2023-02-17T20:43:54.637Z,0.65
2023-02-17T20:46:27.815Z,0.30
2023-02-17T20:48:55.818Z,0.28
2023-02-17T20:51:23.282Z,0.65
2023-02-17T20:53:51.085Z,1.88
2023-02-17T20:56:21.233Z,0.52
2023-02-17T20:58:48.598Z,0.82
2023-02-17T21:01:15.844Z,0.00
2023-02-17T21:03:42.969Z,1.08
2023-02-17T21:06:27.951Z,0.00
2023-02-17T21:08:57.935Z,2.10
2023-02-17T21:11:25.070Z,0.28
2023-02-17T21:13:52.787Z,0.35
2023-02-17T21:16:23.644Z,0.00
2023-02-17T21:18:50.886Z,1.15
2023-02-17T21:21:18.064Z,0.40
2023-02-17T21:23:45.466Z,0.20
2023-02-17T21:26:13.414Z,0.30
2023-02-17T21:28:41.404Z,0.80
2023-02-17T21:31:08.731Z,1.55
2023-02-17T21:33:42.239Z,0.25
2023-02-17T21:36:14.787Z,2.20
2023-02-17T21:38:45.580Z,0.28
2023-02-17T21:41:18.328Z,0.63
2023-02-17T21:44:04.309Z,0.43
2023-02-17T21:46:31.549Z,0.28
2023-02-17T21:49:01.516Z,0.85
2023-02-17T21:51:29.221Z,0.20
2023-02-17T21:53:56.764Z,0.57
2023-02-17T21:56:24.416Z,0.45
2023-02-17T21:58:54.244Z,0.32
2023-02-17T22:01:23.236Z,0.10
2023-02-17T22:03:50.744Z,1.10
2023-02-17T22:06:30.072Z,0.05
2023-02-17T22:08:59.023Z,0.00
2023-02-17T22:11:33.872Z,0.93
2023-02-17T22:14:07.058Z,1.55
2023-02-17T22:16:36.187Z,0.03
2023-02-17T22:19:08.137Z,0.45
2023-02-17T22:21:35.455Z,1.27
2023-02-17T22:24:02.810Z,0.25
2023-02-17T22:26:30.621Z,0.00
2023-02-17T22:28:57.878Z,0.30
2023-02-17T22:31:27.594Z,0.22
2023-02-17T22:33:57.959Z,1.05
2023-02-17T22:36:27.399Z,0.75
2023-02-17T22:38:54.945Z,0.30
2023-02-17T22:41:24.918Z,0.75
2023-02-17T22:43:53.112Z,0.17
2023-02-17T22:46:22.479Z,0.00
2023-02-17T22:48:52.552Z,1.52
2023-02-17T22:51:22.997Z,0.05
2023-02-17T22:53:50.189Z,0.63
2023-02-17T22:56:17.290Z,1.08
2023-02-17T22:58:44.484Z,1.88
2023-02-17T23:01:15.915Z,1.35
2023-02-17T23:03:43.995Z,1.80
2023-02-17T23:06:20.359Z,0.98
2023-02-17T23:08:48.736Z,0.65
2023-02-17T23:11:39.698Z,1.23
2023-02-17T23:14:07.756Z,0.15
2023-02-17T23:16:34.932Z,1.10
2023-02-17T23:19:05.032Z,0.38
2023-02-17T23:21:32.136Z,0.25
2023-02-17T23:23:59.394Z,0.65
2023-02-17T23:26:26.652Z,0.08
2023-02-17T23:28:53.710Z,0.28
2023-02-17T23:31:20.788Z,0.28
2023-02-17T23:33:48.008Z,0.70
2023-02-17T23:36:16.733Z,0.00
2023-02-17T23:38:43.774Z,0.22
2023-02-17T23:41:11.208Z,0.10
2023-02-17T23:43:38.340Z,0.88
2023-02-17T23:46:05.949Z,0.75
2023-02-17T23:48:33.176Z,0.32
2023-02-17T23:51:02.775Z,0.00
2023-02-17T23:53:30.968Z,0.15
2023-02-17T23:56:06.384Z,1.17
2023-02-17T23:58:34.630Z,0.47
